Bookmark and Share
Track history (hours):
 

Nevskiy-22

Last reported at 2013-Nov-26 13:21 UTC. Time now 2014-Apr-24 10:57 UTC.
Position N 59°57' E 030°19'.
Warning: this ship's position is months out of date.

Length 111 m; draft 3 m.

Type: Cargo ship. MMSI: 273449940.

NotesDate/timePositionNaut miles runAvg speedWind from/ knotsBaromVisibWave heightAir tempDewpointWater temp
2013-Nov-26 13:21N 59°57' E 030°19'2 2.2
2013-Nov-26 12:31N 59°57' E 030°15'0 0.1
2013-Nov-26 11:33N 59°58' E 030°15'1 1.2
2013-Nov-26 10:19N 59°57' E 030°12'0 0.0
2013-Nov-26 09:29N 59°57' E 030°12'1 0.1
2013-Nov-26 05:28N 59°57' E 030°11'3 0.1
2013-Nov-25 08:33N 59°55' E 030°14'1 0.3
2013-Nov-25 06:33N 59°55' E 030°13'0 0.0
2013-Nov-25 05:30N 59°55' E 030°13'2 0.1
2013-Nov-24 10:18N 59°56' E 030°08'2 3.1
2013-Nov-24 09:33N 59°55' E 030°13'0 0.0
2013-Nov-24 08:33N 59°55' E 030°13'0 0.0
2013-Nov-24 07:33N 59°55' E 030°13'0 0.0
2013-Nov-24 06:33N 59°55' E 030°13'0 0.0
2013-Nov-24 05:33N 59°55' E 030°13'2 0.1
2013-Nov-23 04:34N 59°56' E 030°10'2 1.5
2013-Nov-23 03:33N 59°55' E 030°13'0 0.0
2013-Nov-23 02:33N 59°55' E 030°13'0 0.0
2013-Nov-23 01:33N 59°55' E 030°13'0 0.0
2013-Nov-23 00:33N 59°55' E 030°13'3 2.0
2013-Nov-22 23:07N 59°57' E 030°08'3 5.5
2013-Nov-22 22:33N 59°58' E 030°15'0 0.2
2013-Nov-22 21:30N 59°57' E 030°15'0 0.0
2013-Nov-22 20:33N 59°57' E 030°15'0 0.0
2013-Nov-22 19:32N 59°57' E 030°15'0 0.0
2013-Nov-22 18:34N 59°57' E 030°15'0 0.0
2013-Nov-22 17:33N 59°57' E 030°15'0 0.0
2013-Nov-22 16:33N 59°57' E 030°15'0 0.0
2013-Nov-22 15:32N 59°57' E 030°15'0 0.0
2013-Nov-22 14:33N 59°57' E 030°15'0 0.0
2013-Nov-22 13:33N 59°57' E 030°15'0 0.2
2013-Nov-22 12:33N 59°57' E 030°15'0 0.1
2013-Nov-22 11:33N 59°57' E 030°15'0 0.0
2013-Nov-22 10:33N 59°57' E 030°15'0 0.0
2013-Nov-22 09:33N 59°57' E 030°15'0 0.0
2013-Nov-22 08:33N 59°57' E 030°15'0 0.0
2013-Nov-22 07:33N 59°57' E 030°15'0 0.0
2013-Nov-22 06:32N 59°57' E 030°15'1 0.6
2013-Nov-22 05:33N 59°58' E 030°14'3 0.3
2013-Nov-21 16:23N 59°56' E 030°08'3 3.2
2013-Nov-21 15:33N 59°55' E 030°13'0 0.0
2013-Nov-21 14:32N 59°55' E 030°13'0 0.0
2013-Nov-21 13:33N 59°55' E 030°13'0 0.0
2013-Nov-21 12:33N 59°55' E 030°13'0 0.0
2013-Nov-21 11:33N 59°55' E 030°13'0 0.0
2013-Nov-21 10:33N 59°55' E 030°13'0 0.0
2013-Nov-21 09:33N 59°55' E 030°13'0 0.0
2013-Nov-21 08:32N 59°55' E 030°13'0 0.0
2013-Nov-21 07:33N 59°55' E 030°13'0 0.0
2013-Nov-21 06:33N 59°55' E 030°13'3 0.1
2013-Nov-20 06:16N 59°58' E 030°13'3 0.1
2013-Nov-19 01:27N 59°57' E 030°18'5 5.2
2013-Nov-19 00:32N 59°57' E 030°09'0 0.0
2013-Nov-18 07:17N 59°57' E 030°08'4 5.1
2013-Nov-18 06:33N 59°57' E 030°15'0 0.0
2013-Nov-18 05:32N 59°57' E 030°15'0 0.1
2013-Nov-18 04:33N 59°57' E 030°15'0 0.0
2013-Nov-18 03:33N 59°57' E 030°15'0 0.0
2013-Nov-18 02:33N 59°57' E 030°15'0 0.0
2013-Nov-18 01:33N 59°57' E 030°15'0 0.0
2013-Nov-18 00:33N 59°57' E 030°15'0 0.0
2013-Nov-17 23:33N 59°57' E 030°15'0 0.0
2013-Nov-17 22:33N 59°57' E 030°15'0 0.0
2013-Nov-17 21:33N 59°57' E 030°15'0 0.0
2013-Nov-17 20:33N 59°57' E 030°15'0 0.0
2013-Nov-17 19:33N 59°57' E 030°15'0 0.0
2013-Nov-17 18:33N 59°57' E 030°15'0 0.0
2013-Nov-17 17:33N 59°57' E 030°15'0 0.0
2013-Nov-17 16:33N 59°57' E 030°15'0 0.0
2013-Nov-17 15:33N 59°57' E 030°15'0 0.0
2013-Nov-17 14:32N 59°57' E 030°15'0 0.0
2013-Nov-17 13:33N 59°57' E 030°15'0 0.0
2013-Nov-17 12:33N 59°57' E 030°15'0 0.0
2013-Nov-17 11:33N 59°57' E 030°15'0 0.0
2013-Nov-17 10:33N 59°57' E 030°15'0 0.0
2013-Nov-17 09:33N 59°57' E 030°15'0 0.0
2013-Nov-17 08:33N 59°57' E 030°15'0 0.0
2013-Nov-17 07:33N 59°57' E 030°15'0 0.1
2013-Nov-17 06:33N 59°57' E 030°15'0 0.0
2013-Nov-17 05:33N 59°57' E 030°15'0 0.0
2013-Nov-17 04:33N 59°57' E 030°15'0 0.0
2013-Nov-17 03:33N 59°57' E 030°15'0 0.0
2013-Nov-17 02:33N 59°57' E 030°15'0 0.0
2013-Nov-17 01:31N 59°57' E 030°15'0 0.0
2013-Nov-17 00:31N 59°57' E 030°15'0 0.0
2013-Nov-16 23:09N 59°57' E 030°15'0 0.0
2013-Nov-16 22:31N 59°57' E 030°15'0 0.0
2013-Nov-16 21:30N 59°57' E 030°15'0 0.0
2013-Nov-16 20:33N 59°57' E 030°15'0 0.0
2013-Nov-16 19:33N 59°57' E 030°15'0 0.0
2013-Nov-16 18:31N 59°57' E 030°15'0 0.0
2013-Nov-16 17:33N 59°57' E 030°15'0 0.0
2013-Nov-16 16:33N 59°57' E 030°15'0 0.0
2013-Nov-16 15:33N 59°57' E 030°15'0 0.0
2013-Nov-16 14:33N 59°57' E 030°15'0 0.0
2013-Nov-16 13:33N 59°57' E 030°15'  

Dump ship's entire track history

sailing weather and tide predictions

Nevskiy-22 — UFSO — position and weather